Date,TemperatureHighF,TemperatureAvgF,TemperatureLowF,DewpointHighF,DewpointAvgF,DewpointLowF,HumidityHigh,HumidityAvg,HumidityLow,PressureMaxIn,PressureMinIn,WindSpeedMaxMPH,WindSpeedAvgMPH,GustSpeedMaxMPH,PrecipitationSumIn
2013-1-1,53,42,34,37,32,29,88,69,43,30.32,30.23,18,3,18,0.04
2013-1-2,53,41,32,38,32,26,83,69,49,30.29,30.17,11,1,11,0.03
2013-1-3,53,41,29,40,34,26,90,76,57,30.29,30.20,8,1,8,0.55
2013-1-4,55,42,33,40,35,31,93,76,47,30.34,30.21,11,1,11,0.10
2013-1-5,48,42,35,43,38,31,95,87,75,30.31,30.10,16,2,16,0.05
2013-1-6,52,45,39,46,42,37,95,91,78,30.21,30.10,16,3,16,0.06
2013-1-7,54,44,35,48,41,34,96,90,71,30.27,30.17,9,1,9,0.04
2013-1-8,54,44,36,47,41,35,98,91,76,30.29,30.16,5,1,5,0.04
2013-1-9,43,41,40,41,40,39,96,95,94,30.20,30.15,3,0,3,0.00
2013-1-10,43,41,38,34,32,29,76,69,58,30.17,30.14,9,1,9,0.02
2013-1-11,51,41,32,38,32,27,86,72,53,30.25,30.14,11,1,11,0.14
2013-1-12,49,41,35,33,28,24,78,60,40,30.27,30.16,11,2,11,0.05
2013-1-13,49,40,28,27,20,13,76,46,28,30.29,30.19,23,4,23,0.39
2013-1-14,52,43,34,27,19,14,70,40,27,30.43,30.24,23,6,23,0.00
2013-1-15,50,41,31,33,30,25,83,68,49,30.53,30.40,9,1,9,0.00
2013-1-16,57,42,31,39,33,28,88,72,47,30.47,30.30,8,1,8,0.00
2013-1-17,59,44,32,41,35,29,91,73,45,30.31,30.19,10,1,10,0.00
2013-1-18,63,47,34,40,33,29,85,61,31,30.28,30.16,14,2,14,0.00
2013-1-19,63,46,33,39,31,27,82,58,28,30.31,30.18,13,2,13,0.00
2013-1-20,64,48,35,38,31,27,77,55,26,30.27,30.15,13,2,13,0.00
2013-1-21,60,47,35,43,35,28,77,64,46,30.22,30.13,9,1,9,0.00
2013-1-22,62,49,34,42,36,29,85,63,37,30.17,30.04,11,1,11,0.00
2013-1-23,52,49,47,47,42,37,95,78,63,30.15,30.00,15,2,15,0.17
2013-1-24,58,53,48,53,50,47,95,91,80,30.22,30.09,12,2,12,0.01
2013-1-25,66,56,50,56,53,49,97,88,71,30.22,30.05,7,1,7,0.00
2013-1-26,61,52,45,52,44,36,97,75,45,30.05,29.94,20,4,20,0.01
2013-1-27,56,47,36,37,34,29,87,62,36,30.18,30.05,13,2,13,0.00
2013-1-28,60,49,37,39,36,32,84,62,40,30.28,30.15,11,1,11,0.00
2013-1-29,60,48,38,44,40,35,89,74,50,30.37,30.25,8,1,8,0.00
2013-1-30,63,51,40,46,42,37,91,73,49,30.37,30.27,13,2,13,0.00
2013-1-31,52,45,40,46,41,37,92,86,79,30.33,30.21,7,1,7,0.00
2013-2-1,66,52,39,46,42,36,90,69,44,30.25,30.14,14,2,14,0.00
2013-2-2,62,53,46,49,45,40,86,75,60,30.24,30.21,5,1,5,0.00
2013-2-3,65,51,40,50,44,38,94,80,48,30.26,30.13,8,1,8,0.00
2013-2-4,64,50,38,51,44,36,93,81,58,30.19,30.06,9,1,9,0.00
2013-2-5,61,49,42,49,44,39,93,81,61,30.14,30.04,15,3,15,0.00
2013-2-6,61,48,38,46,41,35,93,77,50,30.21,30.11,15,3,15,0.00
2013-2-7,57,48,43,47,40,32,93,76,40,30.17,30.00,20,4,20,0.00
2013-2-8,58,48,39,40,32,23,86,58,31,30.02,29.94,23,5,23,0.00
2013-2-9,60,51,40,32,27,24,69,41,27,30.10,29.99,27,5,27,0.00
2013-2-10,63,49,34,39,32,26,83,56,32,30.16,30.02,21,3,21,0.00
2013-2-11,65,53,43,38,30,23,65,43,21,30.23,30.08,16,3,16,0.00
2013-2-12,61,48,36,41,37,31,85,67,46,30.40,30.23,9,1,9,0.00
2013-2-13,65,50,37,45,40,33,90,71,44,30.36,30.20,11,1,11,0.00
2013-2-14,72,56,41,47,42,37,89,63,31,30.27,30.16,23,3,23,0.00
2013-2-15,70,57,44,48,40,36,74,54,31,30.30,30.22,13,2,13,0.00
2013-2-16,68,55,43,48,43,37,82,65,43,30.26,30.01,9,2,9,0.00
2013-2-17,68,54,40,45,37,28,91,62,24,30.06,29.96,15,2,15,0.00
2013-2-18,47,46,46,40,40,38,79,78,74,29.93,29.92,18,6,18,0.00
2013-2-19,50,45,39,44,38,31,92,78,52,29.94,29.73,25,4,25,0.22
2013-2-20,62,49,34,39,32,26,88,58,25,30.03,29.84,22,4,22,0.00
2013-2-21,63,50,36,36,32,26,90,55,25,30.18,30.03,22,3,22,0.00
2013-2-22,67,51,37,44,38,32,83,63,38,30.27,30.12,18,3,18,0.00
2013-2-23,60,54,48,44,30,21,83,45,23,30.26,30.13,23,6,23,0.00
2013-2-24,65,55,47,34,25,17,60,33,18,30.26,30.16,25,6,25,0.00
2013-2-25,63,52,41,43,38,30,91,59,32,30.26,30.16,19,4,19,0.00
2013-2-26,71,56,40,36,25,18,73,34,14,30.23,30.12,24,5,24,0.00
2013-2-27,68,52,37,43,35,29,77,54,31,30.35,30.20,8,1,8,0.00
2013-2-28,72,58,46,54,46,40,84,66,42,30.45,30.35,9,1,9,0.00
2013-3-1,74,60,46,50,47,42,88,66,40,30.43,30.24,12,2,12,0.00
2013-3-2,70,60,49,54,50,44,86,71,52,30.25,30.06,11,2,11,0.00
2013-3-3,68,58,49,54,49,44,86,71,50,30.07,30.00,18,5,18,0.00
2013-3-4,64,53,46,51,45,38,90,75,60,30.14,30.02,17,5,17,0.00
2013-3-5,57,51,44,46,41,33,83,69,59,30.04,29.84,26,8,26,0.04
2013-3-6,58,52,42,46,41,36,89,69,50,30.07,29.84,27,6,27,0.02
2013-3-7,58,48,39,41,38,34,87,68,49,30.02,29.88,13,2,13,0.00
2013-3-8,67,52,39,46,39,33,85,66,31,30.02,29.83,22,3,22,0.00
2013-3-9,71,55,41,44,35,24,90,53,18,30.29,30.02,22,3,22,0.00
2013-3-10,70,55,42,46,39,30,85,57,29,30.39,30.25,10,2,10,0.00
2013-3-11,73,57,42,49,44,37,85,63,40,30.28,30.09,12,1,12,0.00
2013-3-12,75,60,45,54,48,41,89,68,45,30.18,30.06,9,2,9,0.00
2013-3-13,78,63,48,57,52,45,91,69,45,30.18,30.06,13,1,13,0.00
2013-3-14,76,63,52,59,53,47,89,71,52,30.15,30.06,9,1,9,0.00
2013-3-15,77,62,49,54,49,44,84,65,41,30.12,30.00,12,2,12,0.00
2013-3-16,77,63,49,53,47,40,88,60,35,30.08,29.97,17,3,17,0.00
2013-3-17,72,58,43,45,41,32,87,58,26,30.15,30.03,11,2,11,0.00
2013-3-18,63,59,56,47,45,44,67,61,56,30.07,30.04,12,3,12,0.00
2013-3-19,70,57,49,50,46,42,86,66,44,30.13,30.05,18,2,18,0.01
2013-3-20,61,55,49,56,51,45,94,87,75,30.13,30.07,15,4,15,0.07
2013-3-21,68,56,42,50,36,21,90,53,18,30.13,30.00,26,4,26,0.00
2013-3-22,67,59,50,32,20,14,43,22,14,30.12,30.03,27,8,27,0.00
2013-3-23,71,60,48,44,28,19,63,33,17,30.16,30.03,13,3,13,0.00
2013-3-24,74,57,44,47,41,34,83,58,26,30.10,29.95,10,2,10,0.00
2013-3-26,55,52,51,44,44,43,76,73,67,29.95,29.94,16,6,16,0.00
2013-3-27,66,58,50,52,48,43,85,73,58,30.01,29.92,23,6,23,0.00
2013-3-28,71,60,52,54,52,48,89,75,54,30.09,30.01,12,2,12,0.00
2013-3-29,78,65,52,54,51,47,84,63,39,30.11,29.99,16,3,16,0.00
2013-3-30,71,62,56,56,52,47,85,71,46,30.05,29.97,17,3,17,0.00
2013-3-31,68,67,63,54,52,49,71,59,52,30.09,29.99,12,4,12,0.04
2013-4-1,70,63,54,56,52,50,87,69,54,30.16,30.10,12,3,12,0.00
2013-4-2,72,60,48,58,52,46,94,76,56,30.18,30.05,14,2,14,0.02
2013-4-3,75,62,49,59,52,46,93,73,49,30.14,29.96,9,2,9,0.00
2013-4-4,64,57,52,59,53,46,95,86,64,30.11,29.97,19,5,19,0.06
2013-4-5,68,60,54,54,52,48,92,76,59,30.17,30.09,16,5,18,0.09
2013-4-6,69,59,53,56,52,46,90,77,60,30.20,30.09,18,4,18,0.08
2013-4-7,67,57,50,55,49,45,93,74,53,30.15,29.80,25,6,25,0.01
2013-4-8,68,59,50,49,33,23,94,42,19,30.02,29.75,37,9,37,0.00
2013-4-9,76,66,56,37,32,28,38,30,18,30.10,30.02,30,8,30,0.00
2013-4-10,88,75,66,57,47,36,54,37,29,30.17,29.95,25,5,25,0.00
2013-4-11,79,67,51,54,46,32,84,51,19,30.00,29.81,18,3,18,0.00
2013-4-12,81,64,50,56,47,41,81,57,36,29.90,29.77,14,4,14,0.00
2013-4-13,77,62,50,55,48,43,78,61,43,29.89,29.76,17,3,17,0.00
2013-4-14,76,60,46,47,42,36,79,55,30,29.91,29.75,27,5,27,0.00
2013-4-15,66,56,46,45,39,32,84,57,30,29.93,29.80,20,3,20,0.00
2013-4-16,67,59,51,33,27,20,49,31,17,30.17,29.93,29,8,29,0.00
2013-4-17,69,61,53,33,27,20,43,29,16,30.29,30.17,27,7,27,0.00
2013-4-18,78,66,54,44,34,25,55,31,19,30.28,30.16,17,3,17,0.00
2013-4-19,84,67,50,54,47,42,78,52,30,30.23,30.02,13,2,13,0.00
2013-4-20,85,71,61,50,40,29,65,35,15,30.10,29.94,22,4,22,0.00
2013-4-21,90,72,53,50,44,34,77,42,16,30.03,29.89,19,2,19,0.00
2013-4-22,89,77,63,48,37,20,53,28,9,29.96,29.82,22,4,22,0.00
2013-4-23,87,72,59,44,28,18,53,21,9,29.94,29.81,27,7,27,0.00
2013-4-24,86,65,50,53,43,27,78,51,14,29.85,29.75,22,5,22,0.00
2013-4-25,73,61,52,53,48,44,79,62,48,30.06,29.84,23,7,23,0.00
2013-4-26,81,62,49,57,50,45,90,66,42,30.21,30.05,15,4,15,0.00
2013-4-27,87,66,50,59,52,46,88,63,34,30.20,30.00,15,3,15,0.00
2013-4-28,92,72,53,59,53,48,85,56,24,30.03,29.84,11,2,11,0.00
2013-4-29,93,80,66,56,50,39,68,37,18,29.88,29.72,13,2,13,0.00
2013-4-30,85,74,57,53,28,5,74,25,6,29.86,29.75,30,7,30,0.00
2013-5-1,84,71,64,26,19,15,17,14,10,30.03,29.85,35,12,35,0.00
2013-5-5,73,67,62,51,50,48,63,54,43,29.80,29.69,17,3,17,0.00
2013-5-6,72,62,57,57,53,49,90,71,52,29.96,29.80,17,2,17,0.01
2013-5-7,75,66,59,55,51,47,81,60,45,30.02,29.95,15,4,15,0.00
2013-5-8,74,62,54,55,51,49,87,71,49,30.09,30.00,19,7,19,0.00
2013-5-9,78,63,52,57,52,48,87,68,47,30.13,30.01,19,6,19,0.00
2013-5-10,87,66,52,62,54,48,89,67,42,30.15,30.01,18,5,18,0.00
2013-5-11,94,73,55,65,56,50,87,60,25,30.10,29.99,15,3,15,0.00
2013-5-12,91,73,57,60,53,47,81,53,27,30.08,29.96,16,5,16,0.00
2013-5-13,89,72,56,60,54,48,80,56,35,30.04,29.88,17,5,17,0.00
2013-5-14,86,70,58,58,53,48,79,58,35,29.90,29.83,24,6,24,0.00
2013-5-15,76,64,53,52,48,44,72,58,39,30.00,29.89,26,8,26,0.00
2013-5-16,75,63,54,54,50,47,80,64,41,29.99,29.89,20,7,20,0.00
2013-5-17,75,62,51,49,46,41,82,59,33,30.02,29.92,22,6,22,0.00
2013-5-18,81,65,49,54,49,44,83,59,34,30.12,30.01,18,3,18,0.00
2013-5-19,88,70,53,52,43,21,78,45,10,30.10,29.96,22,4,22,0.00
2013-5-20,91,82,62,49,41,34,58,26,15,30.00,29.86,18,5,18,0.00
2013-5-21,80,68,58,49,45,34,70,46,25,29.93,29.82,22,6,22,0.00
2013-5-22,74,61,48,43,33,17,64,38,14,30.01,29.85,21,4,21,0.00
2013-5-23,76,62,47,44,41,32,77,49,23,29.98,29.86,15,3,15,0.00
2013-5-24,77,64,51,48,42,24,72,47,15,29.99,29.88,20,5,20,0.00
2013-5-25,76,61,51,50,46,44,77,60,40,29.99,29.90,21,7,21,0.00
2013-5-26,78,65,55,53,50,47,79,59,35,30.05,29.97,21,6,21,0.00
2013-5-27,66,60,53,57,51,44,92,72,51,30.09,29.99,15,5,19,0.00
2013-5-28,80,66,57,58,55,51,92,69,42,29.99,29.87,20,5,20,0.00
2013-5-29,80,68,58,56,52,47,76,57,42,29.92,29.84,22,6,22,0.00
2013-5-30,83,68,53,51,48,46,80,53,30,29.95,29.87,17,4,17,0.00
2013-5-31,97,76,55,53,45,14,72,41,7,30.00,29.86,17,2,17,0.00
2013-6-1,97,80,60,56,51,45,72,40,18,29.88,29.70,14,3,14,0.00
2013-6-2,93,76,62,56,53,50,68,46,28,29.72,29.59,17,4,17,0.00
2013-6-3,83,71,60,58,54,49,74,55,42,29.75,29.63,22,6,22,0.00
2013-6-4,82,69,59,57,52,49,74,56,40,29.86,29.73,27,7,27,0.00
2013-6-5,82,66,55,58,54,50,85,65,45,29.95,29.80,21,6,21,0.00
2013-6-6,89,69,54,61,54,50,86,64,38,29.91,29.75,19,6,19,0.00
2013-6-7,103,80,57,66,59,52,84,54,28,29.84,29.65,12,2,12,0.00
2013-6-8,108,85,69,64,58,54,61,43,22,29.71,29.59,22,4,22,0.00
2013-6-9,77,70,60,57,54,53,79,58,48,29.82,29.65,30,9,30,0.00
2013-6-10,70,63,58,55,53,52,82,71,57,29.93,29.72,29,8,29,0.00
2013-6-11,84,69,56,58,54,50,85,62,32,29.97,29.83,17,4,17,0.00
2013-6-12,85,70,56,54,50,46,77,52,30,29.94,29.85,23,5,23,0.00
2013-6-13,87,71,54,51,46,43,67,44,24,30.06,29.91,16,3,16,0.00
2013-6-14,91,77,62,50,41,35,62,29,16,29.95,29.78,23,4,23,0.00
2013-6-15,85,69,57,57,51,47,73,56,35,29.89,29.77,20,5,20,0.00
2013-6-16,92,71,57,56,51,47,75,52,25,30.02,29.89,22,4,22,0.00
2013-6-18,78,70,59,52,49,42,67,50,30,29.95,29.89,22,7,22,0.00
2013-6-19,80,67,53,50,46,43,72,48,30,30.04,29.94,22,3,22,0.00
2013-6-20,84,69,54,51,48,45,79,51,28,29.98,29.88,21,4,21,0.00
2013-6-21,90,74,56,51,49,46,73,45,25,29.95,29.85,15,3,15,0.00
2013-6-22,92,76,59,54,51,46,76,47,21,29.90,29.76,21,4,21,0.00
2013-6-23,73,65,58,61,57,52,86,74,57,29.83,29.74,23,8,23,0.00
2013-6-24,66,62,58,60,57,54,88,83,73,29.91,29.77,17,6,17,0.00
2013-6-25,73,66,61,66,62,57,95,87,76,29.98,29.89,24,4,24,0.01
2013-6-26,87,74,62,66,63,60,94,71,45,30.03,29.94,18,4,18,0.00
2013-6-27,98,80,62,67,62,59,90,59,31,30.05,29.95,11,2,12,0.00
2013-6-28,103,86,66,67,62,56,80,48,27,29.98,29.82,20,3,20,0.00
2013-6-29,108,88,68,66,60,57,71,42,21,29.89,29.72,13,2,13,0.00
2013-6-30,104,86,70,63,60,55,68,45,21,29.79,29.67,16,4,16,0.00
2013-7-1,105,84,66,68,61,57,77,50,23,29.80,29.70,11,2,11,0.00
2013-7-2,98,82,68,65,60,57,68,50,30,29.83,29.75,24,7,25,0.00
2013-7-3,106,84,67,68,62,57,72,50,28,29.84,29.67,18,4,19,0.00
2013-7-4,107,88,71,66,60,50,69,43,21,29.72,29.57,17,4,17,0.00
2013-7-5,80,71,60,57,54,48,76,56,39,29.70,29.58,19,8,26,0.00
2013-7-6,82,69,58,59,55,52,82,63,43,29.76,29.66,21,6,21,0.00
2013-7-7,92,73,57,57,50,15,82,52,6,29.80,29.71,18,5,18,0.00
2013-7-8,93,73,57,56,47,14,79,49,7,29.91,29.78,18,5,18,0.00
2013-7-9,101,80,61,58,51,25,77,44,7,30.00,29.86,14,3,14,0.00
2013-7-10,95,75,60,56,52,38,73,48,15,29.92,29.81,20,5,20,0.00
2013-7-11,85,66,54,58,53,49,85,64,37,29.88,29.78,23,8,23,0.00
2013-7-12,88,68,56,59,54,51,86,64,35,29.91,29.79,16,6,23,0.00
2013-7-13,94,75,57,58,51,34,83,52,13,29.92,29.82,14,3,14,0.00
2013-7-14,68,65,62,53,52,51,66,62,58,29.83,29.82,16,7,16,0.00
2013-7-15,81,65,55,57,52,49,83,65,44,29.85,29.75,26,8,26,0.00
2013-7-16,77,64,55,57,53,50,84,69,45,29.95,29.78,26,9,26,0.00
2013-7-17,88,70,54,60,55,51,91,63,33,30.08,29.95,16,3,16,0.00
2013-7-18,94,74,57,59,54,47,86,57,20,30.02,29.85,16,3,16,0.00
2013-7-21,71,69,67,54,53,51,63,57,51,29.81,29.75,23,9,23,0.00
2013-7-22,90,77,69,57,51,41,66,43,19,29.92,29.81,26,8,26,0.00
2013-7-23,90,76,66,59,54,48,70,46,28,29.97,29.85,19,5,19,0.00
2013-7-24,100,80,62,60,55,51,79,48,21,29.94,29.81,16,5,16,0.00
2013-7-25,95,76,63,62,56,52,74,52,30,29.92,29.83,21,6,21,0.00
2013-7-26,94,73,59,62,56,52,78,57,33,30.03,29.88,19,6,19,0.00
2013-7-27,91,70,56,60,56,52,85,63,35,29.94,29.75,21,6,21,0.00
2013-7-28,84,67,57,60,55,51,85,68,43,29.82,29.71,27,8,27,0.00
2013-7-29,77,64,55,58,54,50,84,70,51,29.94,29.74,27,8,27,0.00
2013-7-30,87,68,55,59,54,50,87,65,29,30.07,29.93,20,5,20,0.00
2013-7-31,85,68,56,58,54,51,84,63,39,30.03,29.91,26,7,26,0.00
2013-8-1,85,69,57,56,53,50,80,59,36,30.01,29.89,22,7,22,0.00
2013-8-2,90,72,57,56,53,51,81,55,27,29.95,29.82,15,3,15,0.00
2013-8-3,88,70,57,58,54,52,85,62,30,29.94,29.83,17,5,17,0.00
2013-8-4,84,66,55,57,54,50,85,66,37,29.96,29.87,22,7,22,0.00
2013-8-5,86,66,54,56,53,47,88,65,29,30.00,29.86,21,6,21,0.00
2013-8-6,82,65,54,58,53,50,87,69,43,29.98,29.89,25,8,25,0.00
2013-8-7,75,65,57,58,55,52,83,69,54,30.05,29.94,23,8,23,0.00
2013-8-8,81,67,56,58,54,52,87,66,41,30.00,29.87,16,5,18,0.00
2013-8-9,80,65,55,58,54,51,88,70,46,29.93,29.86,17,7,21,0.00
2013-8-10,85,68,56,60,56,53,89,69,43,30.01,29.91,19,6,19,0.00
2013-8-11,89,70,57,60,56,54,89,65,35,29.99,29.86,17,4,17,0.00
2013-8-12,89,71,57,57,54,47,86,59,24,29.97,29.86,16,4,16,0.00
2013-8-13,96,75,56,58,53,42,87,52,17,29.98,29.83,14,2,14,0.00
2013-8-14,93,75,60,60,55,52,76,54,28,29.93,29.81,17,4,17,0.00
2013-8-15,94,77,63,64,61,58,85,62,34,29.92,29.83,17,4,17,0.00
2013-8-16,96,76,64,67,62,57,87,66,28,29.94,29.87,17,4,17,0.00
2013-8-18,100,98,97,68,63,61,38,32,29,29.77,29.73,11,3,11,0.00
2013-8-19,74,71,68,58,58,57,68,64,58,29.78,29.76,22,8,22,0.00
2013-8-20,92,76,65,62,58,52,75,56,36,29.84,29.72,17,6,17,0.00
2013-8-21,89,72,61,59,55,51,80,58,32,29.87,29.77,18,7,18,0.00
2013-8-22,84,69,58,58,54,51,81,61,37,29.90,29.79,22,7,22,0.00
2013-8-23,88,70,57,59,56,52,88,64,33,29.89,29.72,18,5,18,0.00
2013-8-24,87,71,60,60,56,52,79,61,31,29.83,29.75,20,6,20,0.00
2013-8-25,83,70,63,63,59,56,86,71,46,29.91,29.82,18,6,18,0.00
2013-8-26,87,71,60,60,57,54,87,63,37,29.97,29.84,17,5,17,0.00
2013-8-27,91,73,59,60,55,49,83,58,24,29.87,29.75,18,3,18,0.00
2013-8-28,91,74,61,62,59,55,83,62,36,29.87,29.79,18,5,18,0.00
2013-8-29,91,74,61,65,61,58,90,67,38,30.01,29.87,18,6,18,0.00
2013-8-30,97,78,61,64,59,53,90,57,27,30.02,29.85,13,2,13,0.00
2013-8-31,92,75,64,60,56,50,79,55,24,29.93,29.82,20,5,20,0.00
2013-9-1,87,72,61,60,56,51,80,62,29,29.89,29.81,20,7,20,0.00
2013-9-2,86,73,65,63,60,58,80,65,41,29.91,29.83,18,6,18,0.00
2013-9-3,85,71,62,59,56,52,80,61,34,29.96,29.86,20,6,20,0.00
2013-9-4,86,71,60,59,57,54,83,63,37,30.00,29.87,22,6,22,0.00
2013-9-5,87,71,60,58,56,49,83,61,28,29.97,29.88,20,6,20,0.00
2013-9-6,92,75,57,56,51,44,86,49,20,29.97,29.80,18,2,18,0.00
2013-9-7,98,79,59,54,49,38,70,39,13,29.88,29.75,10,2,13,0.00
2013-9-8,101,81,62,56,52,45,78,43,16,29.85,29.69,10,1,10,0.00
2013-9-9,102,81,63,58,54,48,74,44,19,29.78,29.61,17,3,17,0.00
2013-9-10,83,70,62,62,58,55,78,67,49,29.81,29.63,26,7,26,0.00
2013-9-11,82,70,62,61,58,56,81,68,50,29.96,29.80,19,6,19,0.00
2013-9-12,88,70,60,64,59,56,89,70,44,29.96,29.80,18,3,18,0.00
2013-9-13,90,71,59,62,58,54,87,64,38,29.86,29.66,17,4,17,0.00
2013-9-14,84,69,58,61,56,53,85,66,46,29.77,29.64,22,6,22,0.00
2013-9-15,85,67,55,60,55,52,90,68,37,29.81,29.68,24,9,24,0.00
2013-9-16,80,70,64,57,56,54,73,60,46,29.76,29.72,22,7,22,0.00
2013-9-17,81,68,58,56,54,52,83,62,37,29.85,29.75,23,7,23,0.00
2013-9-18,88,73,60,52,46,40,74,42,20,29.90,29.77,20,3,20,0.00
2013-9-19,92,73,54,51,46,35,76,43,19,29.85,29.70,11,2,11,0.00
2013-9-20,81,67,56,61,54,43,85,63,40,29.83,29.70,22,7,22,0.00
2013-9-21,68,63,56,62,57,52,95,83,61,29.89,29.79,14,4,14,0.42
2013-9-22,75,62,51,58,53,49,94,75,46,30.00,29.88,15,2,15,0.44
2013-9-23,84,68,54,60,56,51,92,67,37,30.02,29.89,13,2,13,0.07
2013-9-24,82,68,61,58,54,46,81,61,34,29.95,29.82,24,5,28,0.00
2013-9-25,74,64,57,49,46,42,67,51,35,29.92,29.77,26,3,26,0.00
2013-9-26,76,67,59,42,37,29,51,35,19,29.98,29.82,24,7,24,0.00
2013-9-27,79,69,60,42,37,33,48,32,20,30.09,29.98,20,4,20,0.00
2013-9-28,84,66,49,55,44,32,81,49,17,30.09,29.96,18,3,18,0.00
2013-9-29,76,66,58,61,58,54,88,76,57,30.10,30.01,18,6,18,0.00
2013-9-30,76,68,61,63,61,54,93,80,64,30.06,29.93,16,4,16,0.00
2013-10-1,78,64,51,54,50,46,86,63,41,30.00,29.89,13,2,13,0.00
2013-10-2,78,66,54,52,48,34,82,56,30,29.99,29.89,14,3,17,0.00
2013-10-3,73,66,59,41,33,30,47,30,21,30.06,29.94,34,8,34,0.00
2013-10-4,80,71,62,33,30,24,31,23,16,30.10,29.98,34,10,34,0.00
2013-10-5,83,71,61,42,30,24,36,23,14,30.21,30.09,16,3,16,0.00
2013-10-6,84,67,48,46,39,34,71,40,17,30.15,29.97,8,1,9,0.00
2013-10-7,87,68,52,45,40,28,69,40,12,30.00,29.83,12,1,12,0.00
2013-10-8,79,66,55,46,42,38,64,43,24,29.90,29.66,13,2,13,0.00
2013-10-9,74,63,50,46,41,36,77,48,28,29.74,29.60,20,4,20,0.00
2013-10-10,75,64,52,48,43,36,76,48,31,29.98,29.73,12,2,12,0.00
2013-10-11,75,61,48,50,46,44,85,62,34,30.08,29.94,12,2,12,0.00
2013-10-12,75,60,48,50,47,43,85,64,38,30.00,29.84,16,3,16,0.00
2013-10-13,75,65,56,48,41,36,68,43,25,30.04,29.88,19,4,19,0.00
2013-10-14,78,63,48,45,39,32,78,44,20,30.12,29.99,17,2,17,0.00
2013-10-15,80,65,49,39,35,30,65,36,17,30.05,29.94,23,3,23,0.00
2013-10-16,81,65,52,46,37,30,59,38,21,30.11,29.98,10,1,10,0.00
2013-10-17,82,65,49,42,38,35,66,40,20,30.09,29.94,7,1,7,0.00
2013-10-18,82,65,51,47,41,36,67,44,20,30.05,29.95,10,1,10,0.00
2013-10-19,84,66,49,48,43,40,72,48,22,30.09,29.98,7,0,7,0.00
2013-10-20,83,66,50,48,44,41,74,49,23,30.01,29.86,10,1,10,0.00
2013-10-21,82,64,49,52,47,44,85,58,29,30.00,29.88,7,1,7,0.00
2013-10-22,84,65,49,52,48,44,89,58,25,30.02,29.88,9,1,9,0.00
2013-10-23,82,63,49,51,48,45,86,61,30,29.95,29.83,12,2,12,0.00
2013-10-24,70,58,48,51,48,44,90,71,48,30.03,29.89,15,4,15,0.00
2013-10-25,77,60,46,51,48,43,90,66,37,30.18,30.03,9,1,9,0.00
2013-10-26,80,63,47,51,47,43,87,60,27,30.16,29.99,8,1,8,0.00
2013-10-27,64,55,50,51,46,40,86,73,53,29.99,29.57,29,6,29,0.00
2013-10-28,66,54,45,48,44,40,86,70,44,29.84,29.63,16,3,16,0.00
2013-10-29,64,55,48,49,46,44,90,72,51,30.05,29.83,9,1,9,0.00
2013-10-30,68,56,44,49,45,41,90,70,48,30.16,30.05,6,1,6,0.00
2013-11-19,55,55,54,53,53,53,95,94,94,29.97,29.96,7,2,7,0.05
2013-11-20,58,56,53,57,54,51,97,95,89,29.96,29.83,15,3,15,0.13
2013-11-21,60,55,52,51,29,17,89,41,21,30.04,29.90,35,10,35,0.04
2013-11-22,70,60,50,30,16,8,46,18,11,30.05,29.91,35,12,35,0.00
2013-11-23,62,51,42,42,36,27,80,57,38,30.12,30.00,12,2,12,0.00
2013-11-24,57,45,39,46,39,36,89,81,65,30.25,30.12,7,1,7,0.00
2013-11-25,52,48,45,43,42,40,83,78,71,30.30,30.28,2,0,2,0.00
2013-11-26,61,50,40,41,39,36,88,67,44,30.29,30.08,8,1,9,0.00
2013-11-27,63,54,46,43,39,35,72,58,46,30.08,29.87,12,2,12,0.00
2013-11-28,70,56,44,45,41,38,83,61,32,30.07,29.89,12,1,12,0.00
2013-11-29,68,54,44,45,42,39,83,66,41,30.21,30.07,9,1,9,0.00
2013-11-30,67,53,43,48,43,38,86,70,46,30.30,30.20,5,0,8,0.00
2013-12-1,68,53,42,47,43,39,89,70,44,30.37,30.22,0,0,0,0.00
2013-12-2,66,52,40,51,45,37,95,77,52,30.23,29.90,19,2,19,0.00
2013-12-3,58,53,46,51,33,18,82,50,26,29.96,29.81,28,5,28,0.00
2013-12-4,50,44,34,20,14,9,48,31,19,30.10,29.96,21,4,21,0.00
2013-12-5,50,40,31,23,16,11,66,39,23,30.18,30.09,12,2,12,0.00
2013-12-6,45,38,27,42,29,21,94,72,48,30.23,29.91,15,2,15,0.05
2013-12-7,48,41,33,42,32,24,94,72,40,30.28,29.90,15,2,15,0.12
2013-12-8,44,36,31,28,22,17,85,58,39,30.35,30.26,15,4,18,0.30
2013-12-9,47,39,31,29,19,12,63,46,29,30.46,30.32,17,3,17,0.00
2013-12-10,32,30,29,22,21,20,71,68,65,30.46,30.40,6,1,6,0.00
2013-12-12,46,43,39,35,34,32,78,71,63,30.25,30.21,6,0,6,0.00
2013-12-13,60,46,34,39,34,30,84,66,39,30.36,30.23,9,1,9,0.00
2013-12-14,59,45,35,39,35,31,88,70,44,30.45,30.33,10,1,10,0.00
2013-12-15,62,46,34,39,35,30,88,67,42,30.41,30.27,8,1,8,0.00
2013-12-16,63,48,36,41,37,32,85,67,39,30.28,30.16,8,1,8,0.00
2013-12-17,63,50,41,41,37,33,81,61,40,30.22,30.05,8,1,8,0.00
2013-12-18,64,50,41,46,40,34,82,69,43,30.05,29.70,12,2,12,0.00
2013-12-19,59,52,39,42,27,13,86,43,23,29.93,29.70,26,8,34,0.00
2013-12-20,66,52,41,25,15,-1,50,25,8,30.03,29.92,21,3,21,0.00
2013-12-21,62,46,36,40,32,23,74,58,36,30.11,29.97,8,1,8,0.00
2013-12-22,63,48,36,40,36,31,84,65,41,30.31,30.11,14,1,14,0.00
2013-12-23,63,49,38,42,38,34,85,67,45,30.44,30.31,8,1,8,0.00
2013-12-24,70,52,41,44,40,36,83,65,35,30.35,30.22,10,1,13,0.00
2013-12-25,65,49,38,40,36,31,88,65,37,30.35,30.23,10,1,10,0.00
2013-12-26,66,49,37,40,33,28,74,55,29,30.30,30.20,10,1,11,0.00
2013-12-27,60,47,36,39,33,29,78,60,41,30.28,30.13,6,1,9,0.00
2013-12-28,72,54,34,37,28,19,80,45,18,30.17,30.02,19,4,19,0.00
2013-12-29,62,52,41,37,29,17,65,44,19,30.21,30.08,19,2,19,0.00
2013-12-30,63,49,37,38,32,25,69,54,36,30.28,30.21,9,1,9,0.00
2013-12-31,65,50,40,34,32,28,75,52,27,30.29,30.16,10,1,10,0.00
2014-1-1,64,49,35,37,32,27,77,53,30,30.24,30.13,7,0,7,0.00
2014-1-2,67,52,39,38,34,30,74,54,31,30.21,30.07,10,1,10,0.00